createdAt,value
2022-10-18T00:01:04.684Z,101082.80
2022-10-18T00:06:14.716Z,101072.20
2022-10-18T00:11:17.762Z,101077.80
2022-10-18T00:16:20.691Z,101069.20
2022-10-18T00:21:26.172Z,101057.40
2022-10-18T00:26:31.227Z,101065.20
2022-10-18T00:31:37.663Z,101070.60
2022-10-18T00:36:42.269Z,101078.20
2022-10-18T00:41:45.758Z,101077.80
2022-10-18T00:46:50.375Z,101079.00
2022-10-18T00:52:17.243Z,101084.00
2022-10-18T00:57:20.764Z,101091.20
2022-10-18T01:02:25.832Z,101087.20
2022-10-18T01:07:53.175Z,101085.80
2022-10-18T01:13:30.486Z,101082.00
2022-10-18T01:18:53.216Z,101074.00
2022-10-18T01:24:27.125Z,101074.00
2022-10-18T01:29:51.384Z,101065.20
2022-10-18T01:35:03.595Z,101057.60
2022-10-18T01:40:09.278Z,101059.80
2022-10-18T01:45:15.174Z,101056.20
2022-10-18T01:50:30.772Z,101051.40
2022-10-18T01:55:51.133Z,101050.80
2022-10-18T02:01:26.066Z,101056.60
2022-10-18T02:06:43.540Z,101044.20
2022-10-18T02:11:51.489Z,101044.80
2022-10-18T02:17:01.544Z,101039.40
2022-10-18T02:22:10.779Z,101037.60
2022-10-18T02:27:14.723Z,101029.20
2022-10-18T02:32:38.619Z,101034.40
2022-10-18T02:37:45.392Z,101040.00
2022-10-18T02:42:57.942Z,101040.40
2022-10-18T02:48:00.954Z,101039.60
2022-10-18T02:53:04.524Z,101046.40
2022-10-18T02:58:07.450Z,101054.40
2022-10-18T03:03:10.326Z,101051.80
2022-10-18T03:08:13.244Z,101049.20
2022-10-18T03:13:16.609Z,101063.80
2022-10-18T03:18:19.598Z,101073.80
2022-10-18T03:23:22.540Z,101081.00
2022-10-18T03:28:25.577Z,101082.20
2022-10-18T03:33:30.522Z,101080.80
2022-10-18T03:38:33.577Z,101087.00
2022-10-18T03:43:36.603Z,101090.00
2022-10-18T03:48:39.681Z,101091.60
2022-10-18T03:53:42.637Z,101098.00
2022-10-18T03:58:45.775Z,101105.20
2022-10-18T04:03:48.762Z,101107.80
2022-10-18T04:08:51.756Z,101118.00
2022-10-18T04:13:54.699Z,101110.60
2022-10-18T04:19:00.052Z,101111.80
2022-10-18T04:24:03.014Z,101110.80
2022-10-18T04:29:06.026Z,101104.80
2022-10-18T04:34:10.790Z,101111.80
2022-10-18T04:39:13.748Z,101113.20
2022-10-18T04:44:16.702Z,101115.60
2022-10-18T04:49:19.743Z,101102.20
2022-10-18T04:54:25.154Z,101115.40
2022-10-18T04:59:31.073Z,101124.20
2022-10-18T05:04:34.548Z,101123.20
2022-10-18T05:09:37.553Z,101130.60
2022-10-18T05:14:40.567Z,101134.00
2022-10-18T05:19:43.761Z,101131.60
2022-10-18T05:24:46.776Z,101118.40
2022-10-18T05:29:49.879Z,101117.20
2022-10-18T05:34:52.981Z,101106.80
2022-10-18T05:39:56.083Z,101113.60
2022-10-18T05:44:59.089Z,101138.20
2022-10-18T05:50:02.194Z,101133.40
2022-10-18T05:55:06.131Z,101137.60
2022-10-18T06:00:10.754Z,101157.60
2022-10-18T06:05:13.776Z,101156.60
2022-10-18T06:10:17.077Z,101150.80
2022-10-18T06:15:20.594Z,101159.60
2022-10-18T06:20:23.701Z,101148.20
2022-10-18T06:25:26.701Z,101132.60
2022-10-18T06:30:29.715Z,101150.20
2022-10-18T06:35:32.816Z,101164.80
2022-10-18T06:40:38.281Z,101152.60
2022-10-18T06:45:41.382Z,101157.60
2022-10-18T06:50:57.199Z,101155.00
2022-10-18T06:56:11.173Z,101149.00
2022-10-18T07:01:17.757Z,101151.20
2022-10-18T07:06:22.962Z,101162.80
2022-10-18T07:11:27.527Z,101165.20
2022-10-18T07:16:32.905Z,101167.80
2022-10-18T07:21:35.939Z,101170.60
2022-10-18T07:26:38.953Z,101168.80
2022-10-18T07:31:42.106Z,101170.20
2022-10-18T07:36:45.231Z,101176.40
2022-10-18T07:41:48.629Z,101181.20
2022-10-18T07:46:51.632Z,101177.80
2022-10-18T07:51:54.731Z,101186.40
2022-10-18T07:56:58.040Z,101186.00
2022-10-18T08:02:01.356Z,101185.60
2022-10-18T08:07:04.473Z,101195.80
2022-10-18T08:12:07.424Z,101193.20
2022-10-18T08:17:10.423Z,101196.00
2022-10-18T08:22:13.485Z,101191.60
2022-10-18T08:27:16.515Z,101197.20
2022-10-18T08:32:19.463Z,101200.20
2022-10-18T08:37:22.482Z,101202.80
2022-10-18T08:42:37.416Z,101194.40
2022-10-18T08:47:45.010Z,101181.20
2022-10-18T08:52:59.457Z,101168.60
2022-10-18T08:58:26.923Z,101150.20
2022-10-18T09:04:17.576Z,101135.60
2022-10-18T09:10:03.101Z,101155.60
2022-10-18T09:15:12.202Z,101175.40
2022-10-18T09:20:38.038Z,101185.80
2022-10-18T09:26:01.208Z,101169.00
2022-10-18T09:31:26.601Z,101148.60
2022-10-18T09:36:37.251Z,101114.00
2022-10-18T09:41:48.035Z,101140.20
2022-10-18T09:47:14.594Z,101155.00
2022-10-18T09:52:39.582Z,101154.00
2022-10-18T09:57:54.987Z,101138.00
2022-10-18T10:03:00.767Z,101115.80
2022-10-18T10:08:05.182Z,101114.80
2022-10-18T10:13:23.258Z,101126.80
2022-10-18T10:18:35.092Z,101120.60
2022-10-18T10:23:55.931Z,101129.80
2022-10-18T10:28:59.363Z,101120.40
2022-10-18T10:34:15.291Z,101136.20
2022-10-18T10:39:21.622Z,101137.20
2022-10-18T10:44:32.952Z,101135.40
2022-10-18T10:49:40.567Z,101136.80
2022-10-18T10:54:51.300Z,101130.00
2022-10-18T11:00:02.289Z,101127.60
2022-10-18T11:05:31.040Z,101123.00
2022-10-18T11:11:00.086Z,101128.80
2022-10-18T11:16:29.845Z,101119.40
2022-10-18T11:21:33.637Z,101116.00
2022-10-18T11:26:56.500Z,101111.20
2022-10-18T11:32:27.689Z,101109.00
2022-10-18T11:37:49.106Z,101107.80
2022-10-18T11:43:34.422Z,101103.20
2022-10-18T11:49:17.236Z,101078.80
2022-10-18T11:55:02.024Z,101083.60
2022-10-18T12:00:23.122Z,101074.40
2022-10-18T12:05:29.253Z,101059.00
2022-10-18T12:10:44.360Z,101057.40
2022-10-18T12:15:56.749Z,101040.80
2022-10-18T12:21:02.098Z,101034.40
2022-10-18T12:26:10.155Z,101022.00
2022-10-18T12:31:19.167Z,101020.20
2022-10-18T12:36:22.164Z,101023.40
2022-10-18T12:41:36.746Z,101017.00
2022-10-18T12:46:45.586Z,101029.60
2022-10-18T12:52:02.331Z,101027.60
2022-10-18T12:57:23.647Z,101020.40
2022-10-18T13:02:30.049Z,101013.40
2022-10-18T13:07:41.220Z,100994.80
2022-10-18T13:12:44.232Z,100983.00
2022-10-18T13:18:00.283Z,100988.80
2022-10-18T13:23:37.037Z,100972.20
2022-10-18T13:29:08.774Z,100958.40
2022-10-18T13:34:24.452Z,100957.80
2022-10-18T13:39:30.039Z,100963.60
2022-10-18T13:44:43.937Z,100963.40
2022-10-18T13:50:36.801Z,100968.20
2022-10-18T13:55:57.949Z,100973.40
2022-10-18T14:01:32.398Z,100980.40
2022-10-18T14:06:45.127Z,100969.60
2022-10-18T14:11:57.940Z,100964.40
2022-10-18T14:17:51.043Z,100958.20
2022-10-18T14:23:17.670Z,100945.00
2022-10-18T14:28:31.563Z,100937.80
2022-10-18T14:33:57.314Z,100933.20
2022-10-18T14:39:06.155Z,100921.00
2022-10-18T14:44:14.850Z,100895.60
2022-10-18T14:49:21.162Z,100903.40
2022-10-18T14:54:32.213Z,100911.40
2022-10-18T14:59:51.982Z,100883.40
2022-10-18T15:05:20.812Z,100891.80
2022-10-18T15:10:30.436Z,100882.60
2022-10-18T15:15:35.307Z,100881.00
2022-10-18T15:20:43.026Z,100902.80
2022-10-18T15:25:46.395Z,100915.40
2022-10-18T15:30:49.880Z,100894.40
2022-10-18T15:35:54.554Z,100883.60
2022-10-18T15:40:58.038Z,100875.20
2022-10-18T15:46:06.465Z,100859.20
2022-10-18T15:51:48.629Z,100869.80
2022-10-18T15:56:51.690Z,100857.00
2022-10-18T16:01:55.319Z,100867.20
2022-10-18T16:07:00.257Z,100869.00
2022-10-18T16:12:04.901Z,100866.40
2022-10-18T16:17:08.319Z,100864.80
2022-10-18T16:22:15.422Z,100879.40
2022-10-18T16:27:19.262Z,100880.40
2022-10-18T16:32:22.256Z,100882.00
2022-10-18T16:37:25.245Z,100879.60
2022-10-18T16:42:28.351Z,100886.80
2022-10-18T16:47:31.363Z,100899.60
2022-10-18T16:52:35.069Z,100896.80
2022-10-18T16:57:38.384Z,100900.00
2022-10-18T17:02:41.525Z,100898.80
2022-10-18T17:07:46.315Z,100905.40
2022-10-18T17:12:49.451Z,100900.00
2022-10-18T17:17:52.899Z,100897.00
2022-10-18T17:22:56.198Z,100894.40
2022-10-18T17:27:59.385Z,100880.00
2022-10-18T17:33:02.485Z,100880.80
2022-10-18T17:38:05.968Z,100894.00
2022-10-18T17:43:09.425Z,100904.20
2022-10-18T17:48:12.519Z,100918.40
2022-10-18T17:53:16.826Z,100905.20
2022-10-18T17:58:19.960Z,100908.00
2022-10-18T18:03:23.163Z,100911.20
2022-10-18T18:08:26.386Z,100913.60
2022-10-18T18:13:29.488Z,100916.40
2022-10-18T18:18:32.693Z,100917.20
2022-10-18T18:23:35.905Z,100914.60
2022-10-18T18:28:39.502Z,100908.80
2022-10-18T18:33:43.852Z,100912.60
2022-10-18T18:38:47.396Z,100908.20
2022-10-18T18:43:55.081Z,100902.80
2022-10-18T18:48:59.008Z,100903.80
2022-10-18T18:54:02.216Z,100910.20
2022-10-18T18:59:06.022Z,100900.40
2022-10-18T19:04:10.788Z,100898.20
2022-10-18T19:09:22.968Z,100898.00
2022-10-18T19:14:26.340Z,100897.00
2022-10-18T19:19:31.059Z,100898.00
2022-10-18T19:24:34.683Z,100894.20
2022-10-18T19:29:40.513Z,100905.00
2022-10-18T19:34:43.968Z,100906.00
2022-10-18T19:39:47.198Z,100903.20
2022-10-18T19:44:50.197Z,100904.80
2022-10-18T19:49:54.035Z,100902.60
2022-10-18T19:54:57.124Z,100900.60
2022-10-18T20:00:00.907Z,100890.40
2022-10-18T20:05:05.267Z,100882.00
2022-10-18T20:10:09.801Z,100884.00
2022-10-18T20:15:12.923Z,100886.00
2022-10-18T20:20:16.114Z,100886.80
2022-10-18T20:25:19.124Z,100884.40
2022-10-18T20:30:22.226Z,100885.60
2022-10-18T20:35:25.643Z,100885.00
2022-10-18T20:40:28.742Z,100876.80
2022-10-18T20:45:31.746Z,100885.60
2022-10-18T20:50:34.796Z,100886.60
2022-10-18T20:55:38.991Z,100880.60
2022-10-18T21:00:42.299Z,100863.60
2022-10-18T21:05:45.303Z,100856.80
2022-10-18T21:10:48.406Z,100861.40
2022-10-18T21:15:57.007Z,100865.80
2022-10-18T21:26:26.351Z,100855.40
2022-10-18T21:31:37.177Z,100852.80
2022-10-18T21:36:41.628Z,100847.00
2022-10-18T21:41:45.778Z,100840.00
2022-10-18T21:46:49.061Z,100849.00
2022-10-18T21:51:52.163Z,100846.60
2022-10-18T21:56:55.476Z,100841.00
2022-10-18T22:01:58.504Z,100826.20
2022-10-18T22:07:05.068Z,100825.20
2022-10-18T22:12:10.838Z,100823.20
2022-10-18T22:17:14.251Z,100814.60
2022-10-18T22:22:17.251Z,100810.40
2022-10-18T22:27:20.283Z,100797.20
2022-10-18T22:32:23.775Z,100791.00
2022-10-18T22:37:26.879Z,100781.20
2022-10-18T22:42:29.900Z,100772.60
2022-10-18T22:47:33.321Z,100757.40
2022-10-18T22:52:36.846Z,100755.20
2022-10-18T22:57:40.048Z,100743.60
2022-10-18T23:02:43.126Z,100756.80
2022-10-18T23:07:49.918Z,100756.60
2022-10-18T23:12:52.924Z,100759.20
2022-10-18T23:17:58.369Z,100756.80
2022-10-18T23:23:01.496Z,100739.60
2022-10-18T23:28:05.993Z,100728.80
2022-10-18T23:33:09.006Z,100738.60
2022-10-18T23:38:12.140Z,100735.40
2022-10-18T23:43:15.142Z,100731.20
2022-10-18T23:48:18.982Z,100720.20
2022-10-18T23:53:23.013Z,100716.00
2022-10-18T23:58:28.532Z,100713.60
